»·PEaware :: KFS29 KBUR-KOAK

KFS29 :: KBUR-KOAK

FLIGHT INFORMATION

Flight Status: Arrived
Operator: Unknown
More flights by this operator :: More flights under this callsign
Pilot: Mike G. (10864)
Aircraft: BEECH AIRCRAFT SUPER KING AIR 350
(B350)
More flights by this aircraft type
Origin: KBUR Bob Hope-Burbank
United States
Destination: KOAK Metro Oakland Intl
United States
More flights between these airports :: More routes between these airports
Route: VNY3 GMN RGOOD PXN PXN6
File this flight plan on PilotEdge
Remarks: RMK / SIMBRIEF
Altitude:
(Current/Filed)
26,000ft
Speed:
(Current/Filed)
314kts
Departed: 26-Jul-21 09:10 AM
Arrived: 26-Jul-21 10:26 AM
Distance/Time
Traveled:
283nm/1:15
Distance/Time
To Go:
Arrived

Flight Plot

Page will automatically refresh every two minutes.

Flight plan parsing failed; only flown route is shown


Map Options




Map Legend


Flown Route
Filed Route
Departure Airport
Arrival Airport
Navaid (VOR, NDB)
Fix

Horizontal Profiles

Position Reports

Time Latitude Longitude Heading Altitude Ground
Speed
26-Jul-21 08:41 34.200225 -118.362831 220 727ft 0kts
26-Jul-21 08:42 34.200225 -118.362831 220 727ft 0kts
26-Jul-21 08:43 34.200225 -118.362831 220 727ft 0kts
26-Jul-21 08:44 34.200225 -118.362831 220 727ft 0kts
26-Jul-21 08:45 34.200225 -118.362831 220 727ft 0kts
26-Jul-21 08:46 34.200225 -118.362831 220 727ft 0kts
26-Jul-21 08:46 34.200225 -118.362831 220 727ft 0kts
26-Jul-21 08:48 34.200225 -118.362831 220 727ft 0kts
26-Jul-21 08:49 34.200225 -118.362831 220 727ft 0kts
26-Jul-21 08:50 34.200225 -118.362831 220 727ft 0kts
26-Jul-21 08:51 34.200225 -118.362831 220 727ft 0kts
26-Jul-21 08:51 34.200225 -118.362831 220 727ft 0kts
26-Jul-21 08:52 34.200225 -118.362831 220 727ft 0kts
26-Jul-21 08:54 34.200225 -118.362831 220 727ft 0kts
26-Jul-21 08:55 34.200225 -118.362831 220 727ft 0kts
26-Jul-21 08:56 34.200225 -118.362831 220 727ft 0kts
26-Jul-21 08:56 34.200225 -118.362831 220 727ft 0kts
26-Jul-21 08:57 34.200225 -118.362831 220 727ft 0kts
26-Jul-21 08:58 34.200225 -118.362831 220 727ft 0kts
26-Jul-21 08:59 34.200225 -118.362831 220 727ft 0kts
26-Jul-21 09:00 34.200225 -118.362831 220 727ft 0kts
26-Jul-21 09:01 34.200225 -118.362831 220 727ft 0kts
26-Jul-21 09:02 34.200225 -118.362831 220 727ft 0kts
26-Jul-21 09:03 34.200225 -118.362831 220 727ft 0kts
26-Jul-21 09:04 34.200225 -118.362831 220 727ft 0kts
26-Jul-21 09:05 34.199812 -118.362627 78 726ft 6kts
26-Jul-21 09:06 34.199049 -118.364980 273 725ft 16kts
26-Jul-21 09:07 34.198855 -118.368940 205 728ft 0kts
26-Jul-21 09:08 34.198806 -118.368962 198 728ft 5kts
26-Jul-21 09:09 34.197764 -118.357800 90 729ft 125kts
26-Jul-21 09:10 34.185618 -118.323616 191 2081ft 134kts
26-Jul-21 09:11 34.153113 -118.361609 225 2713ft 190kts
26-Jul-21 09:12 34.113325 -118.411884 225 3809ft 216kts
26-Jul-21 09:13 34.115006 -118.476837 302 5018ft 222kts
26-Jul-21 09:15 34.163262 -118.534150 339 6427ft 222kts
26-Jul-21 09:15 34.210816 -118.560557 336 7558ft 223kts
26-Jul-21 09:16 34.259486 -118.588065 337 9684ft 192kts
26-Jul-21 09:17 34.308503 -118.615793 339 11109ft 196kts
26-Jul-21 09:18 34.359472 -118.640991 341 12452ft 199kts
26-Jul-21 09:19 34.414086 -118.667900 340 13035ft 236kts
26-Jul-21 09:20 34.475072 -118.698074 341 14614ft 200kts
26-Jul-21 09:21 34.526749 -118.723602 341 15806ft 201kts
26-Jul-21 09:22 34.578667 -118.749323 341 16922ft 202kts
26-Jul-21 09:23 34.630886 -118.775223 341 17835ft 203kts
26-Jul-21 09:24 34.683328 -118.801278 341 18651ft 204kts
26-Jul-21 09:25 34.736058 -118.827508 342 19399ft 205kts
26-Jul-21 09:26 34.789002 -118.853883 342 20116ft 205kts
26-Jul-21 09:27 34.837932 -118.891186 328 20857ft 210kts
26-Jul-21 09:28 34.885418 -118.932672 328 21590ft 210kts
26-Jul-21 09:29 34.933039 -118.974442 328 22376ft 211kts
26-Jul-21 09:30 34.980708 -119.016330 328 23210ft 212kts
26-Jul-21 09:31 35.028505 -119.058396 327 24129ft 212kts
26-Jul-21 09:32 35.076383 -119.100621 327 25076ft 212kts
26-Jul-21 09:33 35.124290 -119.142914 327 25954ft 214kts
26-Jul-21 09:34 35.175774 -119.188418 327 25962ft 236kts
26-Jul-21 09:35 35.230040 -119.236475 326 25960ft 246kts
26-Jul-21 09:36 35.286335 -119.286415 326 25958ft 254kts
26-Jul-21 09:37 35.344415 -119.338029 326 25960ft 262kts
26-Jul-21 09:38 35.404351 -119.391402 326 25957ft 268kts
26-Jul-21 09:39 35.465108 -119.445597 326 25957ft 273kts
26-Jul-21 09:40 35.526784 -119.500723 326 25956ft 276kts
26-Jul-21 09:41 35.589035 -119.556471 326 25955ft 278kts
26-Jul-21 09:42 35.651782 -119.612769 326 25956ft 279kts
26-Jul-21 09:43 35.714715 -119.669351 325 25952ft 280kts
26-Jul-21 09:44 35.777746 -119.726133 325 25953ft 280kts
26-Jul-21 09:45 35.840688 -119.782952 325 25953ft 281kts
26-Jul-21 09:46 35.903696 -119.839945 325 25950ft 281kts
26-Jul-21 09:47 35.961796 -119.905114 319 25949ft 282kts
26-Jul-21 09:48 36.019586 -119.971210 319 25945ft 282kts
26-Jul-21 09:49 36.077295 -120.037388 319 25945ft 283kts
26-Jul-21 09:50 36.135477 -120.104248 319 25783ft 289kts
26-Jul-21 09:51 36.195529 -120.173407 319 25423ft 299kts
26-Jul-21 09:52 36.256918 -120.244263 318 25054ft 304kts
26-Jul-21 09:53 36.319457 -120.316613 318 24422ft 314kts
26-Jul-21 09:54 36.379746 -120.386512 318 23250ft 311kts
26-Jul-21 09:55 36.439730 -120.456221 318 21986ft 301kts
26-Jul-21 09:56 36.499425 -120.525744 318 20702ft 294kts
26-Jul-21 09:57 36.558305 -120.594481 318 19936ft 282kts
26-Jul-21 09:58 36.613508 -120.659063 318 19930ft 263kts
26-Jul-21 09:59 36.665756 -120.720306 318 19929ft 251kts
26-Jul-21 10:00 36.715902 -120.779156 319 19952ft 243kts
26-Jul-21 10:01 36.765274 -120.835513 319 19977ft 239kts
26-Jul-21 10:02 36.814060 -120.891275 319 20003ft 236kts
26-Jul-21 10:03 36.862610 -120.946865 319 20027ft 235kts
26-Jul-21 10:04 36.910885 -121.002249 319 20037ft 235kts
26-Jul-21 10:05 36.959149 -121.057712 319 20037ft 236kts
26-Jul-21 10:06 37.009453 -121.115593 319 20034ft 254kts
26-Jul-21 10:07 37.062853 -121.177179 318 20033ft 265kts
26-Jul-21 10:08 37.117836 -121.240728 317 20038ft 271kts
26-Jul-21 10:09 37.173581 -121.305330 317 19884ft 261kts
26-Jul-21 10:10 37.224065 -121.363930 317 18494ft 236kts
26-Jul-21 10:11 37.272341 -121.420066 317 16430ft 245kts
26-Jul-21 10:12 37.323524 -121.479674 317 14051ft 253kts
26-Jul-21 10:13 37.376371 -121.541311 317 11168ft 266kts
26-Jul-21 10:14 37.430282 -121.604351 318 8212ft 267kts
26-Jul-21 10:15 37.481450 -121.664312 317 6970ft 229kts
26-Jul-21 10:16 37.515535 -121.729062 302 6628ft 228kts
26-Jul-21 10:17 37.548843 -121.796711 302 6271ft 229kts
26-Jul-21 10:18 37.583183 -121.866338 303 5553ft 240kts
26-Jul-21 10:19 37.620708 -121.937743 302 4687ft 247kts
26-Jul-21 10:20 37.655624 -122.009780 295 3551ft 224kts
26-Jul-21 10:21 37.678763 -122.072101 297 2051ft 160kts
26-Jul-21 10:22 37.704766 -122.117946 309 1144ft 140kts
26-Jul-21 10:23 37.714587 -122.166414 286 809ft 153kts
26-Jul-21 10:24 37.726070 -122.208356 289 8ft 89kts
26-Jul-21 10:25 37.729244 -122.212823 34 8ft 0kts

Navigation Log

Ident Type
Flight plan parsing failed, navigation log unavailable